createdAt,value
2022-08-14T00:01:10.035Z,66.57
2022-08-14T00:03:37.365Z,67.91
2022-08-14T00:06:13.849Z,68.35
2022-08-14T00:08:51.525Z,67.36
2022-08-14T00:11:19.639Z,67.25
2022-08-14T00:13:52.701Z,67.72
2022-08-14T00:16:41.547Z,67.23
2022-08-14T00:19:19.232Z,67.13
2022-08-14T00:21:47.854Z,68.06
2022-08-14T00:24:23.397Z,67.73
2022-08-14T00:26:55.775Z,68.41
2022-08-14T00:29:25.309Z,68.95
2022-08-14T00:31:53.924Z,69.17
2022-08-14T00:34:36.655Z,69.46
2022-08-14T00:37:11.184Z,69.96
2022-08-14T00:39:39.446Z,68.80
2022-08-14T00:42:07.680Z,70.18
2022-08-14T00:44:48.892Z,69.46
2022-08-14T00:47:17.226Z,70.86
2022-08-14T00:49:45.166Z,71.35
2022-08-14T00:52:17.700Z,70.98
2022-08-14T00:54:45.610Z,71.21
2022-08-14T00:57:12.420Z,70.46
2022-08-14T00:59:41.326Z,70.01
2022-08-14T01:02:09.330Z,70.34
2022-08-14T01:04:53.367Z,70.30
2022-08-14T01:07:22.693Z,69.51
2022-08-14T01:09:54.776Z,69.96
2022-08-14T01:12:26.769Z,69.95
2022-08-14T01:15:02.066Z,70.23
2022-08-14T01:17:50.771Z,70.28
2022-08-14T01:20:39.710Z,70.58
2022-08-14T01:23:16.431Z,70.13
2022-08-14T01:25:47.964Z,70.35
2022-08-14T01:28:46.209Z,69.72
2022-08-14T01:31:01.745Z,70.25
2022-08-14T01:33:30.201Z,70.54
2022-08-14T01:36:05.143Z,70.36
2022-08-14T01:38:37.265Z,70.47
2022-08-14T01:41:14.757Z,70.44
2022-08-14T01:43:56.360Z,70.49
2022-08-14T01:46:25.126Z,70.07
2022-08-14T01:49:00.665Z,70.27
2022-08-14T01:51:28.922Z,70.32
2022-08-14T01:54:00.847Z,70.09
2022-08-14T01:56:39.343Z,70.15
2022-08-14T01:59:09.722Z,70.10
2022-08-14T02:01:37.923Z,69.89
2022-08-14T02:04:40.819Z,69.72
2022-08-14T02:06:55.346Z,70.29
2022-08-14T02:09:22.749Z,70.46
2022-08-14T02:11:54.633Z,70.43
2022-08-14T02:14:31.002Z,69.95
2022-08-14T02:16:58.580Z,70.53
2022-08-14T02:19:31.753Z,70.79
2022-08-14T02:22:03.092Z,70.86
2022-08-14T02:24:39.573Z,70.50
2022-08-14T02:28:25.728Z,71.23
2022-08-14T02:30:00.927Z,72.41
2022-08-14T02:32:37.120Z,71.76
2022-08-14T02:35:13.761Z,72.36
2022-08-14T02:37:48.063Z,72.98
2022-08-14T02:40:19.438Z,72.96
2022-08-14T02:42:54.754Z,71.94
2022-08-14T02:45:33.311Z,72.14
2022-08-14T02:48:10.381Z,72.84
2022-08-14T02:50:53.665Z,72.54
2022-08-14T02:53:20.318Z,72.57
2022-08-14T02:55:46.974Z,72.64
2022-08-14T02:58:29.338Z,72.58
2022-08-14T03:00:58.810Z,72.44
2022-08-14T03:03:26.061Z,72.35
2022-08-14T03:05:54.299Z,72.17
2022-08-14T03:08:22.478Z,72.59
2022-08-14T03:10:50.109Z,72.21
2022-08-14T03:13:19.385Z,72.83
2022-08-14T03:15:58.069Z,72.96
2022-08-14T03:18:31.889Z,73.65
2022-08-14T03:21:03.965Z,73.60
2022-08-14T03:23:38.755Z,73.26
2022-08-14T03:26:12.944Z,73.50
2022-08-14T03:28:48.305Z,73.83
2022-08-14T03:31:15.529Z,74.31
2022-08-14T03:33:43.293Z,75.59
2022-08-14T03:37:37.938Z,75.29
2022-08-14T03:39:13.670Z,74.97
2022-08-14T03:41:44.902Z,75.24
2022-08-14T03:45:25.324Z,74.84
2022-08-14T03:46:58.069Z,74.77
2022-08-14T03:49:28.327Z,75.96
2022-08-14T03:51:57.817Z,74.80
2022-08-14T03:54:25.904Z,74.78
2022-08-14T03:56:54.606Z,74.92
2022-08-14T03:59:21.279Z,75.70
2022-08-14T04:01:58.185Z,77.58
2022-08-14T04:04:28.282Z,76.16
2022-08-14T04:06:55.082Z,77.34
2022-08-14T04:09:26.647Z,74.82
2022-08-14T04:11:56.148Z,75.51
2022-08-14T04:14:24.660Z,75.90
2022-08-14T04:16:51.275Z,76.63
2022-08-14T04:19:24.139Z,78.04
2022-08-14T04:22:03.401Z,77.43
2022-08-14T04:24:39.061Z,76.65
2022-08-14T04:27:13.351Z,76.39
2022-08-14T04:29:44.799Z,77.35
2022-08-14T04:32:58.684Z,76.70
2022-08-14T04:35:07.804Z,77.26
2022-08-14T04:37:55.655Z,77.60
2022-08-14T04:40:41.076Z,77.12
2022-08-14T04:43:26.551Z,76.85
2022-08-14T04:46:55.729Z,76.55
2022-08-14T04:49:08.046Z,76.35
2022-08-14T04:51:37.455Z,76.24
2022-08-14T04:54:21.682Z,76.05
2022-08-14T04:56:51.146Z,76.21
2022-08-14T04:59:22.087Z,75.80
2022-08-14T05:01:52.840Z,75.94
2022-08-14T05:04:22.990Z,75.82
2022-08-14T05:06:54.965Z,75.54
2022-08-14T05:09:23.867Z,75.06
2022-08-14T05:11:51.361Z,74.70
2022-08-14T05:14:45.583Z,74.62
2022-08-14T05:17:05.373Z,74.61
2022-08-14T05:19:33.652Z,74.44
2022-08-14T05:22:15.537Z,73.93
2022-08-14T05:24:45.228Z,73.56
2022-08-14T05:27:15.517Z,73.42
2022-08-14T05:29:44.838Z,73.27
2022-08-14T05:32:12.541Z,73.45
2022-08-14T05:34:39.538Z,73.53
2022-08-14T05:37:07.485Z,72.18
2022-08-14T05:39:34.205Z,71.79
2022-08-14T05:42:00.915Z,71.80
2022-08-14T05:44:36.590Z,71.30
2022-08-14T05:47:03.195Z,71.17
2022-08-14T05:49:33.401Z,71.25
2022-08-14T05:52:04.167Z,70.33
2022-08-14T05:54:37.619Z,69.36
2022-08-14T05:57:04.878Z,68.79
2022-08-14T05:59:38.602Z,68.79
2022-08-14T06:02:07.014Z,68.57
2022-08-14T06:04:33.556Z,69.30
2022-08-14T06:07:00.126Z,67.73
2022-08-14T06:09:26.654Z,67.91
2022-08-14T06:11:53.211Z,67.47
2022-08-14T06:14:23.823Z,67.17
2022-08-14T06:16:53.254Z,66.68
2022-08-14T06:19:20.618Z,66.51
2022-08-14T06:21:54.389Z,65.51
2022-08-14T06:24:24.827Z,64.15
2022-08-14T06:26:57.003Z,63.80
2022-08-14T06:29:34.745Z,63.46
2022-08-14T06:32:36.696Z,62.88
2022-08-14T06:35:09.215Z,62.42
2022-08-14T06:37:59.718Z,62.00
2022-08-14T06:40:37.126Z,61.81
2022-08-14T06:43:09.274Z,62.51
2022-08-14T06:45:40.550Z,62.65
2022-08-14T06:48:23.682Z,62.89
2022-08-14T06:50:51.739Z,63.12
2022-08-14T06:53:19.753Z,62.88
2022-08-14T06:55:58.204Z,62.93
2022-08-14T06:58:30.852Z,63.31
2022-08-14T07:01:23.129Z,63.01
2022-08-14T07:04:22.501Z,62.05
2022-08-14T07:06:51.337Z,62.66
2022-08-14T07:09:22.605Z,62.09
2022-08-14T07:11:51.688Z,62.44
2022-08-14T07:14:18.766Z,61.14
2022-08-14T07:16:45.400Z,59.07
2022-08-14T07:19:12.095Z,59.60
2022-08-14T07:21:39.609Z,59.92
2022-08-14T07:24:09.707Z,59.34
2022-08-14T07:26:48.886Z,58.06
2022-08-14T07:29:15.466Z,58.84
2022-08-14T07:31:44.310Z,57.07
2022-08-14T07:34:11.469Z,56.69
2022-08-14T07:36:38.125Z,57.50
2022-08-14T07:39:27.819Z,57.05
2022-08-14T07:41:54.694Z,56.00
2022-08-14T07:44:28.697Z,57.41
2022-08-14T07:47:00.002Z,57.77
2022-08-14T07:49:27.514Z,57.39
2022-08-14T07:51:54.583Z,57.90
2022-08-14T07:54:22.891Z,56.53
2022-08-14T07:57:00.817Z,56.87
2022-08-14T07:59:42.192Z,57.08
2022-08-14T08:02:19.626Z,57.49
2022-08-14T08:04:59.983Z,55.53
2022-08-14T08:07:30.686Z,55.21
2022-08-14T08:09:59.648Z,55.12
2022-08-14T08:12:30.741Z,55.88
2022-08-14T08:15:05.678Z,54.39
2022-08-14T08:17:38.752Z,53.61
2022-08-14T08:20:15.754Z,53.28
2022-08-14T08:22:48.340Z,51.01
2022-08-14T08:25:18.878Z,50.93
2022-08-14T08:28:10.366Z,50.90
2022-08-14T08:31:00.322Z,50.41
2022-08-14T08:33:37.440Z,49.69
2022-08-14T08:36:08.147Z,49.95
2022-08-14T08:39:15.044Z,49.49
2022-08-14T08:41:26.748Z,50.02
2022-08-14T08:43:53.974Z,49.42
2022-08-14T08:46:23.822Z,48.86
2022-08-14T08:51:31.278Z,51.32
2022-08-14T08:54:05.698Z,50.32
2022-08-14T08:56:52.052Z,51.18
2022-08-14T08:59:31.594Z,52.30
2022-08-14T09:02:05.061Z,48.52
2022-08-14T09:04:45.368Z,47.81
2022-08-14T09:07:26.871Z,46.72
2022-08-14T09:09:59.338Z,46.58
2022-08-14T09:12:32.146Z,46.83
2022-08-14T09:15:09.023Z,47.50
2022-08-14T09:17:43.221Z,45.82
2022-08-14T09:20:12.532Z,45.78
2022-08-14T09:22:48.215Z,44.62
2022-08-14T09:25:16.364Z,44.02
2022-08-14T09:27:43.181Z,46.14
2022-08-14T09:30:30.761Z,44.71
2022-08-14T09:33:12.507Z,45.60
2022-08-14T09:36:11.767Z,45.83
2022-08-14T09:39:11.803Z,45.29
2022-08-14T09:42:20.692Z,42.83
2022-08-14T09:45:15.274Z,41.94
2022-08-14T09:47:51.753Z,40.83
2022-08-14T09:50:29.960Z,40.51
2022-08-14T09:53:03.931Z,40.99
2022-08-14T09:55:41.345Z,39.15
2022-08-14T09:58:19.111Z,40.06
2022-08-14T10:00:49.688Z,41.27
2022-08-14T10:03:36.549Z,39.37
2022-08-14T10:06:12.668Z,39.48
2022-08-14T10:08:51.586Z,37.58
2022-08-14T10:11:24.134Z,36.52
2022-08-14T10:13:58.574Z,36.28
2022-08-14T10:16:33.657Z,37.49
2022-08-14T10:19:13.381Z,37.62
2022-08-14T10:21:58.651Z,39.16
2022-08-14T10:24:46.970Z,35.76
2022-08-14T10:27:23.715Z,37.50
2022-08-14T10:29:55.738Z,37.49
2022-08-14T10:32:28.448Z,39.09
2022-08-14T10:35:14.195Z,34.71
2022-08-14T10:37:52.743Z,34.17
2022-08-14T10:40:37.732Z,34.37
2022-08-14T10:43:26.032Z,34.13
2022-08-14T10:46:04.157Z,32.84
2022-08-14T10:49:07.881Z,34.09
2022-08-14T10:51:36.215Z,35.23
2022-08-14T10:54:26.138Z,31.26
2022-08-14T10:56:55.963Z,32.25
2022-08-14T10:59:35.437Z,33.04
2022-08-14T11:02:03.818Z,31.40
2022-08-14T11:04:31.259Z,29.64
2022-08-14T11:06:58.651Z,28.29
2022-08-14T11:09:26.081Z,29.46
2022-08-14T11:12:36.729Z,31.34
2022-08-14T11:14:51.161Z,32.44
2022-08-14T11:17:32.056Z,28.99
2022-08-14T11:20:01.242Z,27.47
2022-08-14T11:23:03.081Z,27.89
2022-08-14T11:25:19.479Z,27.87
2022-08-14T11:27:47.201Z,27.32
2022-08-14T11:30:49.894Z,27.99
2022-08-14T11:33:07.611Z,27.98
2022-08-14T11:35:47.708Z,26.25
2022-08-14T11:38:17.216Z,26.14
2022-08-14T11:40:47.057Z,26.27
2022-08-14T11:43:15.013Z,24.89
2022-08-14T11:45:47.915Z,25.66
2022-08-14T11:49:02.737Z,26.19
2022-08-14T11:51:23.899Z,28.17
2022-08-14T11:53:55.718Z,26.31
2022-08-14T11:56:25.705Z,25.52
2022-08-14T11:58:56.325Z,26.43
2022-08-14T12:01:28.653Z,25.17
2022-08-14T12:03:59.157Z,27.87
2022-08-14T12:06:39.240Z,25.28
2022-08-14T12:09:08.562Z,24.53
2022-08-14T12:11:41.364Z,25.91
2022-08-14T12:14:13.571Z,27.20
2022-08-14T12:17:06.635Z,24.80
2022-08-14T12:19:50.708Z,24.33
2022-08-14T12:22:30.460Z,24.70
2022-08-14T12:24:57.418Z,24.46
2022-08-14T12:27:43.507Z,24.23
2022-08-14T12:30:34.321Z,24.99
2022-08-14T12:33:06.723Z,23.99
2022-08-14T12:35:43.033Z,26.16
2022-08-14T12:38:14.850Z,24.53
2022-08-14T12:40:53.845Z,23.65
2022-08-14T12:43:22.780Z,23.68
2022-08-14T12:45:54.986Z,23.31
2022-08-14T12:48:31.932Z,25.11
2022-08-14T12:50:59.060Z,25.47
2022-08-14T12:53:38.677Z,25.24
2022-08-14T12:56:22.486Z,22.86
2022-08-14T12:58:59.123Z,22.57
2022-08-14T13:01:28.513Z,22.93
2022-08-14T13:04:13.454Z,23.13
2022-08-14T13:06:51.252Z,23.15
2022-08-14T13:09:19.598Z,23.28
2022-08-14T13:11:58.976Z,22.19
2022-08-14T13:14:38.548Z,22.18
2022-08-14T13:17:05.660Z,22.18
2022-08-14T13:19:35.432Z,22.66
2022-08-14T13:22:09.457Z,21.52
2022-08-14T13:24:38.830Z,24.14
2022-08-14T13:27:09.747Z,22.23
2022-08-14T13:29:43.751Z,23.71
2022-08-14T13:32:13.870Z,23.29
2022-08-14T13:34:43.661Z,22.40
2022-08-14T13:37:14.570Z,22.41
2022-08-14T13:39:56.739Z,22.73
2022-08-14T13:42:30.768Z,20.60
2022-08-14T13:45:02.531Z,20.54
2022-08-14T13:47:32.452Z,21.41
2022-08-14T13:50:04.469Z,21.60
2022-08-14T13:52:52.254Z,21.54
2022-08-14T13:55:29.384Z,21.87
2022-08-14T13:58:03.149Z,21.72
2022-08-14T14:00:36.081Z,21.63
2022-08-14T14:03:24.353Z,20.97
2022-08-14T14:05:54.878Z,19.95
2022-08-14T14:08:46.748Z,19.72
2022-08-14T14:11:14.337Z,20.12
2022-08-14T14:13:47.052Z,20.47
2022-08-14T14:16:15.457Z,20.62
2022-08-14T14:18:52.475Z,21.02
2022-08-14T14:21:21.772Z,20.40
2022-08-14T14:23:49.259Z,20.40
2022-08-14T14:26:23.030Z,21.07
2022-08-14T14:28:56.530Z,19.47
2022-08-14T14:31:30.247Z,18.55
2022-08-14T14:34:07.592Z,18.92
2022-08-14T14:36:50.149Z,19.96
2022-08-14T14:39:25.459Z,20.30
2022-08-14T14:41:56.569Z,19.09
2022-08-14T14:44:27.871Z,17.53
2022-08-14T14:46:54.439Z,17.65
2022-08-14T14:49:31.768Z,17.53
2022-08-14T14:52:23.315Z,17.78
2022-08-14T14:54:55.435Z,19.34
2022-08-14T14:57:22.043Z,20.22
2022-08-14T14:59:50.123Z,20.17
2022-08-14T15:02:30.071Z,19.17
2022-08-14T15:04:57.354Z,19.72
2022-08-14T15:07:25.950Z,19.06
2022-08-14T15:09:56.313Z,17.87
2022-08-14T15:12:55.037Z,18.94
2022-08-14T15:15:11.140Z,19.38
2022-08-14T15:17:41.809Z,19.73
2022-08-14T15:20:30.478Z,20.28
2022-08-14T15:23:12.179Z,21.17
2022-08-14T15:25:40.797Z,21.92
2022-08-14T15:28:12.705Z,23.75
2022-08-14T15:30:45.926Z,24.64
2022-08-14T15:34:01.213Z,24.27
2022-08-14T15:36:29.351Z,25.70
2022-08-14T15:38:56.799Z,29.21
2022-08-14T15:41:23.315Z,26.23
2022-08-14T15:43:50.225Z,20.64
2022-08-14T15:46:41.097Z,18.69
2022-08-14T15:49:08.815Z,18.07
2022-08-14T15:51:36.738Z,19.35
2022-08-14T15:54:11.390Z,17.71
2022-08-14T15:56:43.395Z,17.61
2022-08-14T15:59:10.371Z,18.39
2022-08-14T16:01:53.832Z,17.16
2022-08-14T16:04:22.795Z,16.82
2022-08-14T16:06:54.822Z,17.22
2022-08-14T16:09:22.813Z,18.37
2022-08-14T16:11:53.740Z,19.56
2022-08-14T16:14:21.516Z,17.83
2022-08-14T16:16:59.922Z,17.66
2022-08-14T16:19:29.292Z,17.21
2022-08-14T16:22:57.572Z,17.04
2022-08-14T16:24:59.769Z,18.29
2022-08-14T16:27:37.311Z,19.19
2022-08-14T16:30:20.725Z,20.03
2022-08-14T16:32:59.176Z,20.28
2022-08-14T16:35:42.467Z,21.04
2022-08-14T16:38:45.010Z,21.26
2022-08-14T16:41:17.483Z,22.24
2022-08-14T16:43:48.249Z,22.47
2022-08-14T16:46:22.469Z,22.53
2022-08-14T16:48:57.918Z,24.10
2022-08-14T16:51:26.116Z,24.15
2022-08-14T16:53:55.504Z,24.70
2022-08-14T16:56:25.516Z,26.17
2022-08-14T16:59:12.193Z,27.08
2022-08-14T17:01:44.766Z,27.66
2022-08-14T17:04:24.748Z,28.30
2022-08-14T17:06:57.466Z,28.72
2022-08-14T17:09:27.793Z,28.97
2022-08-14T17:12:20.100Z,29.07
2022-08-14T17:15:11.178Z,29.58
2022-08-14T17:17:57.865Z,29.30
2022-08-14T17:20:53.395Z,30.33
2022-08-14T17:23:14.481Z,30.64
2022-08-14T17:25:51.257Z,30.70
2022-08-14T17:31:12.584Z,31.67
2022-08-14T17:33:40.761Z,31.28
2022-08-14T17:36:21.091Z,32.35
2022-08-14T17:39:06.366Z,31.97
2022-08-14T17:41:47.771Z,31.45
2022-08-14T17:44:45.531Z,32.20
2022-08-14T17:47:14.656Z,31.85
2022-08-14T17:49:52.329Z,32.25
2022-08-14T17:52:34.267Z,32.78
2022-08-14T17:55:02.875Z,33.07
2022-08-14T17:57:35.443Z,33.59
2022-08-14T18:00:16.503Z,33.74
2022-08-14T18:02:50.567Z,34.55
2022-08-14T18:05:23.244Z,33.59
2022-08-14T18:08:31.343Z,34.30
2022-08-14T18:10:55.151Z,34.90
2022-08-14T18:13:51.792Z,34.86
2022-08-14T18:16:20.163Z,35.44
2022-08-14T18:18:48.595Z,35.13
2022-08-14T18:21:41.536Z,36.03
2022-08-14T18:24:02.255Z,35.95
2022-08-14T18:26:36.997Z,35.96
2022-08-14T18:29:15.173Z,36.58
2022-08-14T18:31:45.183Z,36.99
2022-08-14T18:34:31.194Z,37.54
2022-08-14T18:37:11.064Z,38.00
2022-08-14T18:40:02.001Z,38.53
2022-08-14T18:42:33.197Z,38.66
2022-08-14T18:45:01.656Z,38.86
2022-08-14T18:48:03.391Z,39.65
2022-08-14T18:50:31.046Z,39.15
2022-08-14T18:53:11.090Z,39.67
2022-08-14T18:55:37.730Z,39.97
2022-08-14T18:58:27.843Z,42.02
2022-08-14T19:01:00.232Z,40.62
2022-08-14T19:03:37.092Z,40.75
2022-08-14T19:06:09.392Z,41.81
2022-08-14T19:08:45.481Z,41.33
2022-08-14T19:11:40.575Z,42.64
2022-08-14T19:14:07.563Z,42.14
2022-08-14T19:16:42.897Z,42.85
2022-08-14T19:19:15.389Z,43.76
2022-08-14T19:21:55.310Z,44.37
2022-08-14T19:24:34.276Z,43.67
2022-08-14T19:27:23.744Z,44.97
2022-08-14T19:29:51.876Z,46.49
2022-08-14T19:32:40.318Z,45.50
2022-08-14T19:35:48.968Z,46.08
2022-08-14T19:38:45.059Z,48.06
2022-08-14T19:41:16.233Z,47.93
2022-08-14T19:43:55.345Z,46.46
2022-08-14T19:46:39.031Z,49.32
2022-08-14T19:49:14.614Z,47.72
2022-08-14T19:51:49.573Z,48.43
2022-08-14T19:54:16.525Z,50.45
2022-08-14T19:56:45.820Z,49.66
2022-08-14T19:59:18.866Z,49.40
2022-08-14T20:01:49.819Z,50.42
2022-08-14T20:04:47.011Z,49.47
2022-08-14T20:08:00.618Z,50.07
2022-08-14T20:11:12.548Z,50.57
2022-08-14T20:13:32.040Z,50.16
2022-08-14T20:16:12.085Z,50.95
2022-08-14T20:18:50.910Z,52.20
2022-08-14T20:21:18.497Z,51.52
2022-08-14T20:23:48.069Z,52.06
2022-08-14T20:26:31.207Z,53.23
2022-08-14T20:28:59.250Z,51.81
2022-08-14T20:31:37.096Z,53.17
2022-08-14T20:34:19.320Z,51.77
2022-08-14T20:37:10.082Z,53.93
2022-08-14T20:39:53.849Z,53.40
2022-08-14T20:42:58.502Z,52.69
2022-08-14T20:45:27.550Z,53.98
2022-08-14T20:48:00.777Z,52.65
2022-08-14T20:50:29.618Z,53.35
2022-08-14T20:53:00.631Z,54.10
2022-08-14T20:55:41.188Z,54.57
2022-08-14T20:58:42.250Z,54.83
2022-08-14T21:01:11.261Z,54.25
2022-08-14T21:03:56.776Z,54.17
2022-08-14T21:07:23.842Z,53.79
2022-08-14T21:10:03.062Z,54.72
2022-08-14T21:12:34.479Z,52.96
2022-08-14T21:15:00.034Z,53.29
2022-08-14T21:17:29.599Z,53.33
2022-08-14T21:19:56.616Z,53.31
2022-08-14T21:22:23.259Z,53.72
2022-08-14T21:24:49.786Z,53.99
2022-08-14T21:27:28.825Z,53.92
2022-08-14T21:30:08.560Z,55.93
2022-08-14T21:32:47.136Z,53.77
2022-08-14T21:35:22.816Z,55.86
2022-08-14T21:37:52.142Z,55.07
2022-08-14T21:40:41.558Z,54.79
2022-08-14T21:43:18.258Z,55.57
2022-08-14T21:45:53.403Z,56.63
2022-08-14T21:48:25.369Z,56.58
2022-08-14T21:51:00.282Z,57.16
2022-08-14T21:53:58.852Z,56.70
2022-08-14T21:56:38.448Z,56.91
2022-08-14T21:59:17.736Z,58.02
2022-08-14T22:02:01.780Z,58.09
2022-08-14T22:04:39.905Z,58.40
2022-08-14T22:07:11.022Z,59.24
2022-08-14T22:09:42.998Z,57.97
2022-08-14T22:12:58.897Z,58.75
2022-08-14T22:15:01.874Z,59.07
2022-08-14T22:17:32.439Z,59.38
2022-08-14T22:20:02.174Z,59.68
2022-08-14T22:22:31.680Z,59.89
2022-08-14T22:25:00.116Z,59.69
2022-08-14T22:27:28.476Z,59.42
2022-08-14T22:29:58.550Z,58.89
2022-08-14T22:32:35.204Z,59.80
2022-08-14T22:35:13.264Z,60.42
2022-08-14T22:37:44.585Z,60.77
2022-08-14T22:40:48.458Z,60.86
2022-08-14T22:43:01.057Z,61.06
2022-08-14T22:45:36.195Z,61.17
2022-08-14T22:48:11.213Z,62.42
2022-08-14T22:50:48.744Z,62.39
2022-08-14T22:53:20.431Z,62.48
2022-08-14T22:55:47.637Z,61.78
2022-08-14T22:58:17.149Z,61.87
2022-08-14T23:00:45.572Z,62.51
2022-08-14T23:03:17.288Z,61.94
2022-08-14T23:05:52.874Z,61.57
2022-08-14T23:08:56.303Z,61.97
2022-08-14T23:11:10.490Z,62.02
2022-08-14T23:13:43.616Z,62.55
2022-08-14T23:16:19.972Z,62.63
2022-08-14T23:18:53.940Z,62.91
2022-08-14T23:21:24.551Z,62.83
2022-08-14T23:23:54.934Z,62.85
2022-08-14T23:26:48.209Z,63.26
2022-08-14T23:29:11.431Z,63.05
2022-08-14T23:31:39.409Z,62.55
2022-08-14T23:34:09.015Z,63.51
2022-08-14T23:36:52.948Z,63.26
2022-08-14T23:39:24.774Z,63.09
2022-08-14T23:41:58.116Z,64.65
2022-08-14T23:44:32.225Z,65.20
2022-08-14T23:47:05.778Z,65.30
2022-08-14T23:50:00.223Z,66.31
2022-08-14T23:53:07.271Z,66.04
2022-08-14T23:55:13.518Z,66.17
2022-08-14T23:57:44.107Z,64.64
